Time;durP1;ratioP1;P1;durP2;ratioP2;P2;SDS_P1;SDS_P2;PMS_P1;PMS_P2;Temp;Humidity;BMP_temperature;BMP_pressure;BME280_temperature;BME280_humidity;BME280_pressure;Samples;Min_cycle;Max_cycle;Signal;HPM_P1;HPM_P2
2023/03/23 00:00:55;;;;;;;2.00;1.10;;;15.40;99.90;;;;;;7386493;19;20595;-71
2023/03/23 00:03:21;;;;;;;3.88;1.27;;;15.30;99.90;;;;;;7385706;19;20138;-71
2023/03/23 00:05:50;;;;;;;3.45;1.50;;;15.40;99.90;;;;;;7385997;19;20313;-73
2023/03/23 00:08:22;;;;;;;3.17;1.33;;;15.50;99.90;;;;;;7384200;19;20679;-73
2023/03/23 00:10:56;;;;;;;2.83;1.30;;;15.50;99.90;;;;;;7387179;19;20143;-72
2023/03/23 00:13:23;;;;;;;4.95;1.58;;;15.50;99.90;;;;;;7383299;19;20166;-71
2023/03/23 00:15:51;;;;;;;4.45;1.63;;;15.50;99.90;;;;;;7386369;19;20498;-72
2023/03/23 00:18:21;;;;;;;2.90;1.40;;;15.50;99.90;;;;;;7386140;19;20155;-72
2023/03/23 00:20:53;;;;;;;4.65;1.40;;;15.50;99.90;;;;;;7385012;19;20143;-71
2023/03/23 00:23:20;;;;;;;2.78;1.33;;;15.40;99.90;;;;;;7387163;19;20859;-72
2023/03/23 00:25:57;;;;;;;2.15;1.20;;;15.50;99.90;;;;;;7384328;19;20151;-72
2023/03/23 00:28:26;;;;;;;2.10;1.35;;;15.40;99.90;;;;;;7384332;19;20661;-72
2023/03/23 00:30:59;;;;;;;1.17;1.05;;;15.30;99.90;;;;;;7385887;19;20210;-72
2023/03/23 00:33:27;;;;;;;2.20;1.23;;;15.40;99.90;;;;;;7384212;19;20258;-72
2023/03/23 00:35:54;;;;;;;1.73;1.13;;;15.50;99.90;;;;;;7385606;19;20507;-72
2023/03/23 00:38:24;;;;;;;1.23;1.10;;;15.60;99.90;;;;;;7385380;19;20591;-72
2023/03/23 00:40:51;;;;;;;2.08;1.10;;;15.50;99.90;;;;;;7386771;19;20141;-73
2023/03/23 00:43:19;;;;;;;2.08;1.10;;;15.50;99.90;;;;;;7384547;19;20181;-73
2023/03/23 00:45:52;;;;;;;1.85;1.10;;;15.50;99.90;;;;;;7390834;19;20142;-73
2023/03/23 00:48:19;;;;;;;3.22;1.23;;;15.50;99.90;;;;;;7393541;19;20142;-72
2023/03/23 00:50:46;;;;;;;1.65;1.20;;;15.50;99.90;;;;;;7391938;19;20155;-71
2023/03/23 00:53:12;;;;;;;1.60;1.20;;;15.40;99.90;;;;;;7395315;19;20139;-71
2023/03/23 00:55:37;;;;;;;1.48;1.00;;;15.40;99.90;;;;;;7393154;19;20154;-72
2023/03/23 00:58:03;;;;;;;1.48;1.08;;;15.30;99.90;;;;;;7391866;19;20173;-72
2023/03/23 01:00:29;;;;;;;2.38;1.02;;;15.40;99.90;;;;;;7390891;19;20142;-72
2023/03/23 01:02:55;;;;;;;4.20;0.95;;;15.30;99.90;;;;;;7383935;19;20142;-71
2023/03/23 01:05:21;;;;;;;1.90;1.00;;;15.20;99.90;;;;;;7389544;19;20501;-72
2023/03/23 01:07:48;;;;;;;1.95;1.27;;;15.40;99.90;;;;;;7391800;19;20455;-72
2023/03/23 01:10:17;;;;;;;3.08;1.02;;;15.40;99.90;;;;;;7391313;19;20133;-72
2023/03/23 01:12:46;;;;;;;1.40;1.10;;;15.40;99.90;;;;;;7394355;19;20221;-71
2023/03/23 01:15:15;;;;;;;1.40;1.05;;;15.50;99.90;;;;;;7391899;19;20150;-72
2023/03/23 01:17:42;;;;;;;2.08;0.98;;;15.40;99.90;;;;;;7391376;19;20138;-71
2023/03/23 01:20:09;;;;;;;1.75;1.13;;;15.50;99.90;;;;;;7392580;19;20538;-71
2023/03/23 01:22:35;;;;;;;1.95;1.10;;;15.40;99.90;;;;;;7392339;19;20150;-71
2023/03/23 01:25:01;;;;;;;1.17;1.00;;;15.40;99.90;;;;;;7390115;19;20144;-71
2023/03/23 01:27:27;;;;;;;1.50;1.00;;;15.40;99.90;;;;;;7390870;19;20171;-72
2023/03/23 01:29:52;;;;;;;1.75;1.00;;;15.30;99.90;;;;;;7391363;19;20126;-71
2023/03/23 01:32:18;;;;;;;1.25;1.00;;;15.20;99.90;;;;;;7390590;19;20135;-72
2023/03/23 01:34:44;;;;;;;1.35;1.10;;;15.20;99.90;;;;;;7386150;19;20146;-72
2023/03/23 01:37:10;;;;;;;1.83;1.00;;;15.30;99.90;;;;;;7389225;19;20299;-71
2023/03/23 01:39:37;;;;;;;1.42;1.02;;;15.40;99.90;;;;;;7391840;19;20141;-72
2023/03/23 01:42:03;;;;;;;2.88;1.17;;;15.40;99.90;;;;;;7391701;19;20606;-72
2023/03/23 01:44:32;;;;;;;2.60;1.13;;;15.50;99.90;;;;;;7391243;19;20166;-71
2023/03/23 01:46:58;;;;;;;1.90;0.95;;;15.40;99.90;;;;;;7392227;19;20615;-71
2023/03/23 01:49:29;;;;;;;2.42;1.00;;;15.50;99.90;;;;;;7390767;19;20138;-72
2023/03/23 01:52:07;;;;;;;3.15;1.00;;;15.40;99.90;;;;;;7392479;19;20206;-72
2023/03/23 01:54:36;;;;;;;2.63;1.10;;;15.40;99.90;;;;;;7390332;19;20142;-71
2023/03/23 01:57:15;;;;;;;2.22;1.20;;;15.30;99.90;;;;;;7388820;19;20154;-72
2023/03/23 01:59:44;;;;;;;1.17;1.00;;;15.20;99.90;;;;;;7391789;19;20152;-71
2023/03/23 02:02:11;;;;;;;3.35;1.10;;;15.20;99.90;;;;;;7390365;19;21454;-72
2023/03/23 02:04:37;;;;;;;1.08;0.98;;;15.20;99.90;;;;;;7390161;19;20186;-71
2023/03/23 02:07:03;;;;;;;2.17;1.20;;;15.20;99.90;;;;;;7389669;19;20600;-71
2023/03/23 02:09:30;;;;;;;1.52;0.90;;;15.30;99.90;;;;;;7390481;19;20138;-72
2023/03/23 02:11:56;;;;;;;2.78;1.23;;;15.30;99.90;;;;;;7391224;19;20640;-73
2023/03/23 02:14:24;;;;;;;1.20;0.98;;;15.20;99.90;;;;;;7388516;19;20139;-71
2023/03/23 02:17:03;;;;;;;1.05;0.95;;;15.20;99.90;;;;;;7388396;19;20603;-71
2023/03/23 02:19:57;;;;;;;1.15;1.05;;;15.30;99.90;;;;;;7390739;19;20246;-70
2023/03/23 02:22:44;;;;;;;1.60;1.10;;;15.30;99.90;;;;;;7388798;19;20472;-72
2023/03/23 02:25:37;;;;;;;1.92;1.05;;;15.30;99.90;;;;;;7390793;19;20145;-72
2023/03/23 02:28:19;;;;;;;1.73;1.23;;;15.30;99.90;;;;;;7389136;19;20188;-72
2023/03/23 02:31:06;;;;;;;1.50;0.93;;;15.20;99.90;;;;;;7388944;19;20189;-71
2023/03/23 02:33:44;;;;;;;1.42;1.02;;;15.20;99.90;;;;;;7389715;19;20139;-72
2023/03/23 02:36:37;;;;;;;2.03;1.20;;;15.20;99.90;;;;;;7387987;19;20449;-71
2023/03/23 02:39:34;;;;;;;1.38;1.00;;;15.30;99.90;;;;;;7390513;19;20233;-72
2023/03/23 02:42:06;;;;;;;2.20;1.02;;;15.30;99.90;;;;;;7389600;19;20146;-72
2023/03/23 02:44:34;;;;;;;2.10;1.00;;;15.40;99.90;;;;;;7389840;19;20483;-71
2023/03/23 02:47:03;;;;;;;1.70;1.10;;;15.30;99.90;;;;;;7388113;19;20164;-71
2023/03/23 02:49:32;;;;;;;0.98;0.88;;;15.30;99.90;;;;;;7389322;19;20170;-71
2023/03/23 02:52:06;;;;;;;1.92;1.15;;;15.20;99.90;;;;;;7389601;19;20488;-72
2023/03/23 02:54:34;;;;;;;1.50;1.10;;;15.30;99.90;;;;;;7391830;19;20143;-73
2023/03/23 02:57:01;;;;;;;1.85;1.10;;;15.30;99.90;;;;;;7390764;19;20210;-72
2023/03/23 02:59:27;;;;;;;1.63;1.00;;;15.20;99.90;;;;;;7388895;19;20165;-71
2023/03/23 03:02:02;;;;;;;2.45;1.25;;;15.20;99.90;;;;;;7380614;19;20575;-72
2023/03/23 03:04:31;;;;;;;1.05;0.90;;;15.20;99.90;;;;;;7387678;19;20184;-73
2023/03/23 03:07:45;;;;;;;1.30;0.90;;;15.20;99.90;;;;;;7389400;19;20139;-70
2023/03/23 03:10:15;;;;;;;1.05;0.90;;;15.10;99.90;;;;;;7385934;19;20150;-71
2023/03/23 03:12:56;;;;;;;1.42;0.70;;;15.20;99.90;;;;;;7384068;19;20134;-72
2023/03/23 03:15:45;;;;;;;0.95;0.80;;;14.90;99.90;;;;;;7384198;19;20170;-71
2023/03/23 03:18:51;;;;;;;2.85;1.20;;;14.80;99.90;;;;;;7386004;19;20207;-72
2023/03/23 03:21:20;;;;;;;1.42;1.00;;;15.00;99.90;;;;;;7385988;19;20599;-71
2023/03/23 03:23:49;;;;;;;1.45;1.23;;;14.90;99.90;;;;;;7386073;19;20158;-72
2023/03/23 03:26:17;;;;;;;0.82;0.80;;;15.00;99.90;;;;;;7388252;19;20148;-72
2023/03/23 03:28:47;;;;;;;1.48;1.02;;;14.70;99.90;;;;;;7387392;19;20214;-72
2023/03/23 03:31:16;;;;;;;2.00;1.10;;;14.50;99.90;;;;;;7386259;19;20146;-71
2023/03/23 03:33:43;;;;;;;1.52;0.82;;;14.50;99.90;;;;;;7390298;19;20130;-71
2023/03/23 03:36:16;;;;;;;3.25;1.17;;;14.60;99.90;;;;;;7386164;19;20501;-72
2023/03/23 03:38:43;;;;;;;1.90;0.90;;;14.70;99.90;;;;;;7389956;19;20309;-71
2023/03/23 03:41:09;;;;;;;1.20;1.10;;;14.80;99.90;;;;;;7388223;19;20130;-71
2023/03/23 03:43:35;;;;;;;1.70;1.42;;;14.80;99.90;;;;;;7382333;19;20549;-72
2023/03/23 03:46:02;;;;;;;1.20;0.90;;;14.70;99.90;;;;;;7386938;19;20158;-71
2023/03/23 03:48:27;;;;;;;2.75;1.20;;;14.80;99.90;;;;;;7387500;19;20213;-71
2023/03/23 03:50:56;;;;;;;1.67;1.13;;;14.90;99.90;;;;;;7388352;19;20171;-72
2023/03/23 03:53:23;;;;;;;1.23;1.00;;;14.80;99.90;;;;;;7386732;19;20154;-71
2023/03/23 03:55:49;;;;;;;1.00;0.90;;;14.90;99.90;;;;;;7386985;19;20584;-72
2023/03/23 03:58:16;;;;;;;2.83;1.40;;;14.70;99.90;;;;;;7386016;19;20170;-72
2023/03/23 04:00:43;;;;;;;2.00;0.90;;;14.80;99.90;;;;;;7386264;19;20157;-72
2023/03/23 04:03:09;;;;;;;1.55;1.10;;;15.00;99.90;;;;;;7386298;19;20143;-71
2023/03/23 04:05:38;;;;;;;1.45;1.10;;;15.00;99.90;;;;;;7385637;19;20173;-72
2023/03/23 04:08:04;;;;;;;1.25;0.90;;;15.00;99.90;;;;;;7384181;19;20142;-71
2023/03/23 04:10:30;;;;;;;1.45;1.00;;;15.10;99.90;;;;;;7388428;19;20603;-72
2023/03/23 04:12:56;;;;;;;1.38;1.10;;;14.90;99.90;;;;;;7386177;19;20146;-72
2023/03/23 04:15:23;;;;;;;1.77;1.10;;;14.90;99.90;;;;;;7386351;19;20246;-72
2023/03/23 04:17:50;;;;;;;1.58;1.20;;;15.00;99.90;;;;;;7386879;19;20138;-71
2023/03/23 04:20:17;;;;;;;1.48;1.00;;;15.00;99.90;;;;;;7386811;19;20226;-71
2023/03/23 04:22:49;;;;;;;2.08;1.10;;;15.00;99.90;;;;;;7386743;19;20580;-72
2023/03/23 04:25:20;;;;;;;2.53;1.05;;;15.10;99.90;;;;;;7383127;19;20149;-72
2023/03/23 04:27:52;;;;;;;4.30;1.48;;;15.10;99.90;;;;;;7388197;19;20158;-72
2023/03/23 04:30:24;;;;;;;1.42;0.93;;;15.10;99.90;;;;;;7384577;19;20151;-71
2023/03/23 04:32:51;;;;;;;1.75;1.10;;;14.90;99.90;;;;;;7384564;19;20138;-72
2023/03/23 04:35:19;;;;;;;1.75;0.90;;;14.90;99.90;;;;;;7385289;19;20159;-73
2023/03/23 04:37:45;;;;;;;1.33;0.95;;;15.00;99.90;;;;;;7383785;19;20794;-71
2023/03/23 04:40:14;;;;;;;1.55;0.93;;;15.00;99.90;;;;;;7386132;19;20146;-71
2023/03/23 04:42:41;;;;;;;2.33;1.00;;;15.00;99.90;;;;;;7384495;19;20483;-72
2023/03/23 04:45:08;;;;;;;1.15;0.88;;;14.90;99.90;;;;;;7386221;19;20154;-71
2023/03/23 04:47:40;;;;;;;1.35;0.85;;;14.90;99.90;;;;;;7385773;19;20612;-71
2023/03/23 04:50:11;;;;;;;0.80;0.77;;;14.90;99.90;;;;;;7384114;19;20603;-72
2023/03/23 04:52:40;;;;;;;2.85;1.20;;;15.10;99.90;;;;;;7384586;19;20142;-72
2023/03/23 04:55:09;;;;;;;1.15;1.05;;;15.10;99.90;;;;;;7385047;19;20154;-71
2023/03/23 04:57:39;;;;;;;2.05;1.48;;;15.10;99.90;;;;;;7384795;19;20595;-72
2023/03/23 05:00:08;;;;;;;3.20;1.48;;;15.10;99.90;;;;;;7384280;19;20139;-71
2023/03/23 05:02:39;;;;;;;1.40;1.13;;;15.10;99.90;;;;;;7384771;19;20146;-72
2023/03/23 05:05:06;;;;;;;3.30;1.30;;;15.20;99.90;;;;;;7381984;19;20147;-71
2023/03/23 05:07:32;;;;;;;2.10;1.00;;;15.20;99.90;;;;;;7385483;19;20206;-71
2023/03/23 05:09:58;;;;;;;1.63;1.00;;;15.10;99.90;;;;;;7386314;19;20164;-71
2023/03/23 05:12:24;;;;;;;1.58;0.98;;;15.20;99.90;;;;;;7384416;19;20185;-72
2023/03/23 05:14:50;;;;;;;1.33;0.90;;;15.20;99.90;;;;;;7383568;19;20213;-71
2023/03/23 05:17:16;;;;;;;1.77;1.00;;;15.10;99.90;;;;;;7382634;19;20258;-70
2023/03/23 05:19:47;;;;;;;1.65;1.15;;;15.10;99.90;;;;;;7384791;19;20176;-71
2023/03/23 05:22:16;;;;;;;1.35;1.00;;;15.10;99.90;;;;;;7383155;19;20194;-72
2023/03/23 05:24:43;;;;;;;1.90;1.35;;;15.10;99.90;;;;;;7384933;19;20670;-70
2023/03/23 05:27:09;;;;;;;1.95;1.35;;;15.00;99.90;;;;;;7385546;19;20142;-72
2023/03/23 05:29:36;;;;;;;3.28;1.50;;;15.10;99.90;;;;;;7385326;19;20147;-71
2023/03/23 05:32:05;;;;;;;1.63;1.15;;;15.20;99.90;;;;;;7389467;19;20166;-71
2023/03/23 05:34:34;;;;;;;3.85;1.35;;;15.20;99.90;;;;;;7391083;19;20162;-72
2023/03/23 05:37:01;;;;;;;2.10;1.45;;;15.20;99.90;;;;;;7390469;19;20181;-72
2023/03/23 05:39:28;;;;;;;1.67;1.20;;;15.20;99.90;;;;;;7390496;19;20135;-72
2023/03/23 05:41:54;;;;;;;3.35;1.25;;;15.20;99.90;;;;;;7390647;19;20155;-71
2023/03/23 05:44:21;;;;;;;1.75;1.27;;;15.20;99.90;;;;;;7390810;19;20170;-72
2023/03/23 05:46:47;;;;;;;6.82;1.67;;;15.20;99.90;;;;;;7392097;19;20141;-72
2023/03/23 05:49:15;;;;;;;3.90;2.30;;;15.30;99.90;;;;;;7390361;19;20135;-71
2023/03/23 05:51:42;;;;;;;3.65;1.48;;;15.20;99.90;;;;;;7393102;19;20607;-71
2023/03/23 05:54:10;;;;;;;2.53;1.67;;;15.20;99.90;;;;;;7390376;19;20153;-70
2023/03/23 05:56:35;;;;;;;2.20;1.60;;;15.20;99.90;;;;;;7388781;19;20154;-72
2023/03/23 05:59:03;;;;;;;2.65;1.50;;;15.30;99.90;;;;;;7392011;19;20146;-71
2023/03/23 06:01:29;;;;;;;3.15;1.42;;;15.30;99.90;;;;;;7389900;19;20146;-71
2023/03/23 06:03:58;;;;;;;2.00;1.20;;;15.30;99.90;;;;;;7388530;19;20186;-71
2023/03/23 06:06:30;;;;;;;2.75;1.20;;;15.30;99.90;;;;;;7390384;19;20187;-70
2023/03/23 06:08:56;;;;;;;1.40;1.00;;;15.30;99.90;;;;;;7389288;19;20481;-71
2023/03/23 06:11:24;;;;;;;1.75;0.82;;;15.40;99.90;;;;;;7389671;19;20504;-72
2023/03/23 06:13:50;;;;;;;2.30;1.20;;;15.50;99.90;;;;;;7390792;19;20143;-72
2023/03/23 06:16:16;;;;;;;3.50;1.20;;;15.50;99.90;;;;;;7388112;19;20158;-71
2023/03/23 06:18:42;;;;;;;2.22;1.13;;;15.40;99.90;;;;;;7385956;19;20134;-72
2023/03/23 06:21:09;;;;;;;1.33;0.90;;;15.40;99.90;;;;;;7390650;19;20214;-71
2023/03/23 06:23:35;;;;;;;1.33;1.08;;;15.50;99.90;;;;;;7387906;19;20177;-71
2023/03/23 06:26:05;;;;;;;1.50;0.90;;;15.50;99.90;;;;;;7388558;19;20609;-71
2023/03/23 06:28:32;;;;;;;1.30;1.10;;;15.40;99.90;;;;;;7390667;19;20587;-71
2023/03/23 06:31:06;;;;;;;1.50;1.10;;;15.50;99.90;;;;;;7386146;19;20544;-71
2023/03/23 06:33:33;;;;;;;2.92;1.17;;;15.40;99.90;;;;;;7388088;19;20154;-73
2023/03/23 06:36:00;;;;;;;2.55;0.98;;;15.50;99.90;;;;;;7387154;19;20142;-73
2023/03/23 06:38:26;;;;;;;3.10;1.20;;;15.50;99.90;;;;;;7389909;19;20162;-73
2023/03/23 06:40:53;;;;;;;2.22;1.10;;;15.50;99.90;;;;;;7388037;19;20142;-72
2023/03/23 06:43:19;;;;;;;2.85;1.10;;;15.60;99.90;;;;;;7382994;19;20139;-71
2023/03/23 06:45:45;;;;;;;2.67;1.20;;;15.60;99.90;;;;;;7388407;19;20161;-71
2023/03/23 06:48:12;;;;;;;5.80;3.85;;;15.60;99.90;;;;;;7385894;19;20169;-72
2023/03/23 06:50:38;;;;;;;3.45;2.17;;;15.60;99.90;;;;;;7387624;19;20158;-72
2023/03/23 06:53:03;;;;;;;3.22;1.35;;;15.60;99.90;;;;;;7388562;19;20150;-72
2023/03/23 06:55:29;;;;;;;1.42;1.30;;;15.60;99.90;;;;;;7387969;19;20172;-71
2023/03/23 06:57:55;;;;;;;1.30;1.17;;;15.60;99.90;;;;;;7386124;19;20670;-72
2023/03/23 07:00:20;;;;;;;2.83;1.48;;;15.60;99.90;;;;;;7388440;19;20142;-74
2023/03/23 07:02:46;;;;;;;2.25;1.50;;;15.80;99.90;;;;;;7390900;19;20507;-71
2023/03/23 07:05:14;;;;;;;1.50;1.30;;;15.90;99.90;;;;;;7387758;19;20617;-71
2023/03/23 07:07:40;;;;;;;3.50;1.38;;;16.00;99.90;;;;;;7389583;19;20139;-71
2023/03/23 07:10:08;;;;;;;1.40;1.10;;;16.10;99.90;;;;;;7389889;19;20166;-72
2023/03/23 07:12:35;;;;;;;3.08;1.38;;;16.10;99.90;;;;;;7387902;19;20150;-73
2023/03/23 07:15:04;;;;;;;2.38;1.33;;;16.00;99.90;;;;;;7387802;19;20479;-73
2023/03/23 07:17:31;;;;;;;1.70;1.25;;;16.00;99.90;;;;;;7387233;19;20818;-73
2023/03/23 07:19:57;;;;;;;2.17;1.42;;;16.00;99.90;;;;;;7388900;19;20202;-71
2023/03/23 07:22:24;;;;;;;2.88;1.80;;;16.10;99.90;;;;;;7387230;19;20160;-72
2023/03/23 07:24:50;;;;;;;1.55;1.00;;;16.00;99.90;;;;;;7387126;19;20141;-71
2023/03/23 07:27:16;;;;;;;4.18;1.40;;;16.00;99.90;;;;;;7388824;19;20146;-74
2023/03/23 07:29:42;;;;;;;2.40;1.55;;;16.00;99.90;;;;;;7388109;19;20146;-72
2023/03/23 07:32:11;;;;;;;4.03;1.27;;;16.00;99.90;;;;;;7387037;19;20165;-73
2023/03/23 07:34:37;;;;;;;2.90;1.15;;;15.90;99.90;;;;;;7388878;19;20214;-72
2023/03/23 07:37:04;;;;;;;3.45;1.23;;;15.90;99.90;;;;;;7388170;19;20172;-72
2023/03/23 07:39:30;;;;;;;2.47;1.42;;;15.90;99.90;;;;;;7388303;19;20162;-71
2023/03/23 07:41:56;;;;;;;2.13;1.30;;;15.90;99.90;;;;;;7387236;19;20506;-72
2023/03/23 07:44:22;;;;;;;2.80;1.10;;;16.00;99.90;;;;;;7388163;19;20126;-73
2023/03/23 07:46:51;;;;;;;3.35;1.30;;;16.00;99.90;;;;;;7389099;19;20145;-72
2023/03/23 07:49:20;;;;;;;6.05;1.30;;;16.00;99.90;;;;;;7387905;19;20154;-71
2023/03/23 07:51:49;;;;;;;2.10;1.20;;;16.00;99.90;;;;;;7388139;19;20786;-71
2023/03/23 07:54:16;;;;;;;2.22;1.10;;;16.10;99.90;;;;;;7385841;19;20150;-71
2023/03/23 07:56:43;;;;;;;2.78;1.40;;;16.30;99.90;;;;;;7387204;19;21663;-72
2023/03/23 07:59:09;;;;;;;2.08;1.33;;;16.30;99.90;;;;;;7386207;19;20139;-72
2023/03/23 08:01:38;;;;;;;3.75;1.20;;;16.30;99.90;;;;;;7386799;19;20202;-71
2023/03/23 08:04:05;;;;;;;1.60;1.02;;;16.40;99.90;;;;;;7385868;19;20229;-72
2023/03/23 08:06:35;;;;;;;5.00;1.30;;;16.50;99.90;;;;;;7387162;19;20537;-72
2023/03/23 08:09:08;;;;;;;1.70;1.38;;;16.70;99.90;;;;;;7386805;19;20150;-69
2023/03/23 08:11:34;;;;;;;2.28;1.05;;;16.80;99.90;;;;;;7388632;19;20574;-71
2023/03/23 08:14:00;;;;;;;3.92;1.83;;;16.90;99.90;;;;;;7387306;19;20157;-71
2023/03/23 08:16:27;;;;;;;2.08;1.50;;;16.90;99.90;;;;;;7387153;19;20608;-71
2023/03/23 08:18:53;;;;;;;1.98;1.25;;;16.70;99.90;;;;;;7386375;19;20615;-72
2023/03/23 08:21:20;;;;;;;3.72;1.35;;;16.70;99.90;;;;;;7385948;19;20139;-71
2023/03/23 08:23:46;;;;;;;4.45;1.23;;;16.80;99.90;;;;;;7386683;19;20142;-71
2023/03/23 08:26:12;;;;;;;3.38;1.30;;;16.70;99.90;;;;;;7389414;19;20138;-73
2023/03/23 08:28:38;;;;;;;2.47;1.17;;;16.70;99.90;;;;;;7388162;19;20141;-71
2023/03/23 08:31:12;;;;;;;4.78;2.03;;;16.70;99.90;;;;;;7385366;19;20621;-72
2023/03/23 08:33:39;;;;;;;4.10;1.85;;;16.60;99.90;;;;;;7387385;19;20154;-69
2023/03/23 08:36:05;;;;;;;2.25;1.20;;;16.60;99.90;;;;;;7385427;19;20165;-71
2023/03/23 08:38:31;;;;;;;1.35;1.00;;;16.50;99.90;;;;;;7387097;19;20154;-71
2023/03/23 08:41:02;;;;;;;1.88;1.30;;;16.60;99.90;;;;;;7383727;19;20135;-72
2023/03/23 08:43:28;;;;;;;1.48;1.13;;;16.60;99.90;;;;;;7387482;19;20174;-71
2023/03/23 08:45:54;;;;;;;3.28;1.90;;;16.60;99.90;;;;;;7386000;19;20663;-72
2023/03/23 08:48:22;;;;;;;2.05;1.05;;;16.50;99.90;;;;;;7384908;19;20162;-71
2023/03/23 08:50:49;;;;;;;1.50;1.08;;;16.50;99.90;;;;;;7384220;19;20131;-72
2023/03/23 08:53:16;;;;;;;2.47;1.30;;;16.50;99.90;;;;;;7385472;19;20166;-73
2023/03/23 08:55:42;;;;;;;1.10;1.00;;;16.50;99.90;;;;;;7384849;19;20188;-72
2023/03/23 08:58:09;;;;;;;1.63;1.10;;;16.50;99.90;;;;;;7382927;19;20158;-71
2023/03/23 09:00:35;;;;;;;3.65;1.35;;;16.50;99.90;;;;;;7382473;19;20134;-72
2023/03/23 09:03:01;;;;;;;3.53;1.05;;;16.60;99.90;;;;;;7383885;19;20150;-70
2023/03/23 09:05:28;;;;;;;2.38;1.63;;;16.70;99.90;;;;;;7385485;19;20155;-71
2023/03/23 09:07:58;;;;;;;1.50;1.10;;;16.80;99.90;;;;;;7392487;19;20618;-72
2023/03/23 09:10:27;;;;;;;3.30;1.02;;;16.70;99.90;;;;;;7392354;19;20138;-72
2023/03/23 09:12:54;;;;;;;2.90;1.40;;;16.80;99.90;;;;;;7393286;19;20167;-73
2023/03/23 09:15:21;;;;;;;3.50;1.20;;;16.80;99.90;;;;;;7392115;19;20166;-71
2023/03/23 09:17:49;;;;;;;4.88;1.27;;;17.00;99.90;;;;;;7390017;19;20170;-72
2023/03/23 09:20:21;;;;;;;2.78;1.33;;;17.00;99.90;;;;;;7391714;19;20146;-72
2023/03/23 09:22:49;;;;;;;2.97;1.63;;;17.10;99.90;;;;;;7392789;19;20223;-71
2023/03/23 09:25:20;;;;;;;1.48;1.23;;;17.10;99.90;;;;;;7390436;19;20536;-72
2023/03/23 09:27:56;;;;;;;3.22;1.10;;;17.00;99.90;;;;;;7393505;19;20135;-72
2023/03/23 09:30:30;;;;;;;2.63;1.75;;;17.10;99.90;;;;;;7391526;19;20138;-71
2023/03/23 09:32:57;;;;;;;3.00;1.65;;;17.20;99.90;;;;;;7390525;19;20521;-72
2023/03/23 09:35:24;;;;;;;3.08;1.58;;;17.30;99.90;;;;;;7391437;19;20150;-72
2023/03/23 09:37:51;;;;;;;1.75;1.23;;;17.30;99.90;;;;;;7388274;19;20150;-71
2023/03/23 09:40:20;;;;;;;1.35;1.25;;;17.10;99.90;;;;;;7391983;19;20146;-72
2023/03/23 09:43:18;;;;;;;1.58;1.10;;;17.10;99.90;;;;;;7392442;19;20461;-72
2023/03/23 09:46:00;;;;;;;2.80;1.45;;;17.00;99.90;;;;;;7392297;19;20131;-72
2023/03/23 09:48:40;;;;;;;2.85;1.33;;;17.10;99.90;;;;;;7390930;19;20150;-72
2023/03/23 09:51:38;;;;;;;3.00;0.85;;;17.00;99.90;;;;;;7390126;19;20149;-71
2023/03/23 09:54:26;;;;;;;3.08;1.23;;;16.90;99.90;;;;;;7391344;19;20230;-72
2023/03/23 09:56:54;;;;;;;1.92;1.20;;;16.90;99.90;;;;;;7390505;19;20138;-71
2023/03/23 09:59:39;;;;;;;3.85;1.25;;;17.00;99.90;;;;;;7390970;19;20146;-72
2023/03/23 10:02:17;;;;;;;1.38;1.20;;;17.00;99.90;;;;;;7390355;19;20167;-71
2023/03/23 10:04:50;;;;;;;1.98;1.27;;;17.20;99.90;;;;;;7389863;19;20155;-72
2023/03/23 10:07:21;;;;;;;2.10;1.42;;;17.30;99.90;;;;;;7393766;19;20139;-72
2023/03/23 10:09:51;;;;;;;2.15;1.30;;;17.40;99.90;;;;;;7389851;19;20139;-72
2023/03/23 10:12:36;;;;;;;2.60;1.65;;;17.30;99.90;;;;;;7389104;19;20143;-73
2023/03/23 10:15:17;;;;;;;1.35;1.10;;;17.30;99.90;;;;;;7391744;19;20837;-71
2023/03/23 10:17:51;;;;;;;1.90;1.10;;;17.20;99.90;;;;;;7387711;19;20161;-72
2023/03/23 10:20:17;;;;;;;1.38;1.10;;;17.30;99.90;;;;;;7389014;19;20163;-71
2023/03/23 10:23:16;;;;;;;1.42;0.98;;;17.40;99.90;;;;;;7390772;19;20599;-71
2023/03/23 10:25:50;;;;;;;1.58;1.00;;;17.30;99.90;;;;;;7389781;19;20169;-71
2023/03/23 10:28:23;;;;;;;4.03;1.05;;;17.20;99.90;;;;;;7388950;19;20158;-71
2023/03/23 10:30:53;;;;;;;2.50;1.30;;;17.40;99.90;;;;;;7387190;19;20135;-71
2023/03/23 10:33:37;;;;;;;1.63;0.93;;;17.40;99.90;;;;;;7389221;19;20135;-72
2023/03/23 10:36:13;;;;;;;1.38;0.95;;;17.60;99.90;;;;;;7389887;19;20225;-72
2023/03/23 10:38:48;;;;;;;1.27;1.00;;;17.60;99.90;;;;;;7390708;19;20138;-71
2023/03/23 10:41:16;;;;;;;1.73;1.05;;;17.70;99.90;;;;;;7388495;19;20154;-71
2023/03/23 10:43:43;;;;;;;1.40;0.93;;;17.60;99.90;;;;;;7390246;19;20174;-71
2023/03/23 10:46:23;;;;;;;2.10;1.10;;;17.50;99.90;;;;;;7388944;19;20139;-71
2023/03/23 10:48:51;;;;;;;1.92;1.00;;;17.60;99.90;;;;;;7389520;19;20463;-72
2023/03/23 10:51:24;;;;;;;1.58;1.20;;;17.30;99.90;;;;;;7388473;19;20139;-71
2023/03/23 10:53:57;;;;;;;1.58;1.00;;;17.40;99.90;;;;;;7389295;19;20170;-72
2023/03/23 10:56:36;;;;;;;1.25;1.10;;;17.50;99.90;;;;;;7391446;19;20239;-72
2023/03/23 10:59:14;;;;;;;1.50;1.30;;;17.50;99.90;;;;;;7388922;19;20149;-71
2023/03/23 11:01:44;;;;;;;1.42;1.13;;;17.60;99.90;;;;;;7387052;19;20619;-71
2023/03/23 11:04:15;;;;;;;1.48;0.90;;;17.60;99.90;;;;;;7386003;19;20250;-71
2023/03/23 11:06:46;;;;;;;3.72;1.05;;;17.60;99.90;;;;;;7390468;19;20142;-71
2023/03/23 11:09:21;;;;;;;1.80;1.10;;;17.70;99.90;;;;;;7387662;19;20154;-72
2023/03/23 11:11:55;;;;;;;3.10;1.00;;;17.90;99.90;;;;;;7388108;19;20768;-72
2023/03/23 11:14:32;;;;;;;3.97;2.58;;;17.70;99.90;;;;;;7387494;19;20142;-73
2023/03/23 11:17:04;;;;;;;4.32;1.80;;;17.70;99.90;;;;;;7388010;19;20150;-72
2023/03/23 11:19:35;;;;;;;2.45;1.35;;;17.70;99.90;;;;;;7388339;19;20146;-72
2023/03/23 11:22:04;;;;;;;3.80;1.33;;;17.50;99.90;;;;;;7387094;19;20131;-71
2023/03/23 11:24:43;;;;;;;3.25;1.17;;;17.60;99.90;;;;;;7387686;19;20167;-72
2023/03/23 11:27:10;;;;;;;2.15;1.00;;;17.60;99.90;;;;;;7388522;19;20130;-72
2023/03/23 11:29:43;;;;;;;2.20;1.25;;;17.80;99.90;;;;;;7385868;19;20150;-71
2023/03/23 11:32:13;;;;;;;3.97;1.00;;;17.60;99.90;;;;;;7386730;19;20717;-72
2023/03/23 11:34:48;;;;;;;1.15;0.95;;;17.60;99.90;;;;;;7386163;19;20159;-72
2023/03/23 11:37:32;;;;;;;2.90;1.13;;;17.50;99.90;;;;;;7388802;19;20497;-73
2023/03/23 11:40:15;;;;;;;2.08;1.23;;;17.50;99.90;;;;;;7387753;19;20145;-72
2023/03/23 11:43:21;;;;;;;2.33;1.23;;;17.50;99.90;;;;;;7385568;19;20167;-72
2023/03/23 11:46:05;;;;;;;1.70;1.00;;;17.80;99.90;;;;;;7384483;19;20602;-73
2023/03/23 11:48:54;;;;;;;3.72;1.67;;;18.00;99.90;;;;;;7388848;19;20362;-71
2023/03/23 11:51:23;;;;;;;2.53;1.17;;;18.00;99.90;;;;;;7388576;19;20168;-71
2023/03/23 11:54:31;;;;;;;2.42;1.60;;;18.00;99.90;;;;;;7386746;19;20142;-73
2023/03/23 11:56:57;;;;;;;2.50;1.50;;;17.90;99.90;;;;;;7383441;19;20149;-71
2023/03/23 11:59:33;;;;;;;5.30;2.00;;;18.10;99.90;;;;;;7387113;19;20162;-73
2023/03/23 12:02:17;;;;;;;2.13;1.58;;;18.00;99.90;;;;;;7386090;19;20230;-73
2023/03/23 12:04:54;;;;;;;2.55;1.60;;;18.20;99.90;;;;;;7385573;19;20657;-73
2023/03/23 12:07:47;;;;;;;4.18;1.70;;;18.10;99.90;;;;;;7386679;19;20142;-73
2023/03/23 12:10:19;;;;;;;1.38;0.95;;;18.10;99.90;;;;;;7385140;19;20150;-72
2023/03/23 12:12:56;;;;;;;1.85;1.20;;;18.30;99.90;;;;;;7387092;19;20686;-72
2023/03/23 12:15:33;;;;;;;4.55;1.60;;;18.30;99.90;;;;;;7385403;19;20491;-73
2023/03/23 12:18:06;;;;;;;4.82;1.35;;;18.40;99.90;;;;;;7383707;19;20150;-72
2023/03/23 12:20:57;;;;;;;1.67;1.35;;;18.20;99.90;;;;;;7385425;19;20150;-70
2023/03/23 12:23:25;;;;;;;2.60;1.13;;;18.20;99.90;;;;;;7385385;19;20582;-74
2023/03/23 12:26:10;;;;;;;2.95;1.20;;;18.20;99.90;;;;;;7385833;19;20143;-72
2023/03/23 12:28:50;;;;;;;4.97;2.72;;;18.20;99.90;;;;;;7385597;19;20146;-71
2023/03/23 12:31:19;;;;;;;2.05;1.40;;;18.30;99.90;;;;;;7382519;19;20433;-72
2023/03/23 12:34:12;;;;;;;2.45;1.50;;;18.40;99.90;;;;;;7387186;19;20127;-73
2023/03/23 12:36:50;;;;;;;2.97;2.10;;;18.30;99.90;;;;;;7382395;19;20134;-72
2023/03/23 12:39:35;;;;;;;2.15;1.90;;;18.10;99.90;;;;;;7385961;19;20179;-72
2023/03/23 12:42:16;;;;;;;1.70;1.20;;;18.10;99.90;;;;;;7391986;19;20152;-72
2023/03/23 12:45:01;;;;;;;2.47;1.45;;;18.20;99.90;;;;;;7393095;19;20141;-72
2023/03/23 12:47:46;;;;;;;2.25;1.55;;;18.50;99.90;;;;;;7392676;19;20146;-71
2023/03/23 12:50:34;;;;;;;2.28;1.50;;;18.50;99.90;;;;;;7391868;19;20174;-72
2023/03/23 12:53:21;;;;;;;2.35;1.27;;;18.70;99.90;;;;;;7393009;19;20134;-74
2023/03/23 12:55:53;;;;;;;2.22;1.05;;;18.80;99.90;;;;;;7394099;19;20150;-74
2023/03/23 12:58:27;;;;;;;1.13;1.02;;;18.80;99.90;;;;;;7388404;19;20209;-73
2023/03/23 13:01:05;;;;;;;1.90;1.10;;;18.80;99.90;;;;;;7391446;19;20154;-73
2023/03/23 13:03:44;;;;;;;1.45;1.02;;;18.70;99.90;;;;;;7393893;19;20229;-72
2023/03/23 13:06:38;;;;;;;1.73;1.17;;;18.70;99.90;;;;;;7393753;19;20142;-73
2023/03/23 13:09:32;;;;;;;3.35;1.10;;;18.50;99.90;;;;;;7393233;19;20134;-74